< < Back
Terminal Aerodrome Forecast


Current Version              Previous Versions:   1  2  3  4  5  6  7  8  9  

Terminal Aerodrome Forecast

651
FTUS44 KMOB 021100
TAFPNS
TAF
KPNS 021126Z 0212/0312 00000KT P6SM SCT025
     FM021800 18006KT P6SM VCTS SCT030CB
     FM030000 VRB02KT P6SM SKC=

Latest METAR

062
SAUS70 KWBC 021400 RRJ
MTRPNS
METAR KPNS 021353Z 26004KT 10SM FEW020 28/23 A3009 RMK AO2 SLP190
T02830228


USA.gov is the U.S. government's official web portal to all federal, state and local government web resources and services.